createdAt,value
2018-02-10T00:00:43.940Z,84.90
2018-02-10T00:03:10.380Z,85.40
2018-02-10T00:05:36.742Z,85.30
2018-02-10T00:08:03.130Z,85.10
2018-02-10T00:10:29.502Z,84.80
2018-02-10T00:12:55.880Z,84.90
2018-02-10T00:15:22.982Z,85.10
2018-02-10T00:17:49.338Z,85.10
2018-02-10T00:20:16.460Z,85.10
2018-02-10T00:22:47.838Z,85.00
2018-02-10T00:25:14.210Z,85.40
2018-02-10T00:27:40.582Z,85.30
2018-02-10T00:30:06.953Z,84.80
2018-02-10T00:32:34.064Z,85.00
2018-02-10T00:35:00.414Z,85.00
2018-02-10T00:37:27.515Z,85.50
2018-02-10T00:39:53.890Z,86.00
2018-02-10T00:42:20.253Z,86.10
2018-02-10T00:44:47.358Z,86.50
2018-02-10T00:47:13.713Z,86.60
2018-02-10T00:49:40.851Z,87.30
2018-02-10T00:52:07.234Z,87.30
2018-02-10T00:54:33.613Z,87.60
2018-02-10T00:57:00.016Z,87.80
2018-02-10T00:59:26.434Z,87.70
2018-02-10T01:01:52.838Z,87.60
2018-02-10T01:04:19.229Z,87.60
2018-02-10T01:06:45.575Z,87.50
2018-02-10T01:09:11.965Z,87.40
2018-02-10T01:11:39.062Z,86.60
2018-02-10T01:14:06.186Z,86.40
2018-02-10T01:16:32.549Z,86.50
2018-02-10T01:18:59.650Z,86.50
2018-02-10T01:21:26.056Z,86.50
2018-02-10T01:23:52.430Z,86.30
2018-02-10T01:26:18.785Z,86.30
2018-02-10T01:28:45.138Z,86.50
2018-02-10T01:31:11.510Z,86.30
2018-02-10T01:33:37.862Z,86.40
2018-02-10T01:36:04.242Z,86.80
2018-02-10T01:38:30.605Z,86.90
2018-02-10T01:40:56.963Z,87.30
2018-02-10T01:43:23.334Z,87.70
2018-02-10T01:45:49.703Z,87.50
2018-02-10T01:48:16.084Z,87.40
2018-02-10T01:50:43.191Z,87.60
2018-02-10T01:53:09.574Z,87.60
2018-02-10T01:55:35.925Z,87.90
2018-02-10T01:58:02.282Z,88.00
2018-02-10T02:00:28.653Z,88.20
2018-02-10T02:02:55.832Z,88.00
2018-02-10T02:05:22.221Z,88.00
2018-02-10T02:07:49.314Z,87.90
2018-02-10T02:10:15.674Z,88.00
2018-02-10T02:12:42.050Z,87.50
2018-02-10T02:15:08.448Z,87.50
2018-02-10T02:17:34.864Z,87.20
2018-02-10T02:20:01.221Z,87.40
2018-02-10T02:22:27.570Z,87.50
2018-02-10T02:24:54.687Z,87.20
2018-02-10T02:27:22.528Z,87.30
2018-02-10T02:29:48.896Z,87.40
2018-02-10T02:32:15.259Z,87.00
2018-02-10T02:34:42.369Z,86.60
2018-02-10T02:37:08.732Z,86.60
2018-02-10T02:39:35.838Z,86.40
2018-02-10T02:42:02.195Z,86.30
2018-02-10T02:44:28.575Z,86.40
2018-02-10T02:46:54.950Z,86.50
2018-02-10T02:49:21.318Z,86.80
2018-02-10T02:51:47.675Z,86.80
2018-02-10T02:54:14.048Z,87.00
2018-02-10T02:56:41.152Z,87.00
2018-02-10T02:59:07.501Z,87.00
2018-02-10T03:01:33.852Z,87.00
2018-02-10T03:04:00.216Z,87.00
2018-02-10T03:06:26.745Z,87.90
2018-02-10T03:08:53.115Z,86.90
2018-02-10T03:11:19.508Z,86.70
2018-02-10T03:13:46.643Z,86.80
2018-02-10T03:16:13.765Z,86.80
2018-02-10T03:18:40.115Z,86.80
2018-02-10T03:21:06.476Z,86.40
2018-02-10T03:23:32.840Z,86.80
2018-02-10T03:25:59.293Z,86.50
2018-02-10T03:28:25.686Z,86.30
2018-02-10T03:30:52.044Z,86.60
2018-02-10T03:33:18.411Z,86.90
2018-02-10T03:35:45.515Z,87.60
2018-02-10T03:38:11.916Z,87.60
2018-02-10T03:40:38.310Z,87.40
2018-02-10T03:43:04.718Z,86.90
2018-02-10T03:45:31.079Z,86.50
2018-02-10T03:47:57.450Z,86.30
2018-02-10T03:50:23.821Z,86.20
2018-02-10T03:52:50.179Z,86.50
2018-02-10T03:55:17.290Z,86.60
2018-02-10T03:57:43.654Z,86.50
2018-02-10T04:00:10.772Z,86.70
2018-02-10T04:02:37.130Z,86.70
2018-02-10T04:05:03.526Z,86.90
2018-02-10T04:07:29.895Z,86.90
2018-02-10T04:09:56.328Z,86.90
2018-02-10T04:12:23.438Z,86.90
2018-02-10T04:14:49.814Z,86.90
2018-02-10T04:17:16.192Z,86.70
2018-02-10T04:19:42.575Z,86.70
2018-02-10T04:22:09.696Z,86.60
2018-02-10T04:24:36.071Z,86.50
2018-02-10T04:27:03.215Z,86.30
2018-02-10T04:29:30.317Z,86.40
2018-02-10T04:31:56.678Z,86.40
2018-02-10T04:34:23.051Z,86.20
2018-02-10T04:36:49.422Z,85.90
2018-02-10T04:39:15.803Z,85.60
2018-02-10T04:41:42.162Z,85.60
2018-02-10T04:44:08.513Z,85.70
2018-02-10T04:46:34.879Z,86.00
2018-02-10T04:49:01.999Z,86.00
2018-02-10T04:51:28.372Z,86.60
2018-02-10T04:53:55.076Z,86.10
2018-02-10T04:56:21.446Z,86.00
2018-02-10T04:58:48.554Z,85.60
2018-02-10T05:01:14.906Z,85.50
2018-02-10T05:03:42.026Z,85.60
2018-02-10T05:06:08.390Z,85.60
2018-02-10T05:08:35.539Z,86.00
2018-02-10T05:11:02.722Z,85.90
2018-02-10T05:13:29.089Z,85.90
2018-02-10T05:15:55.453Z,85.90
2018-02-10T05:18:22.746Z,85.80
2018-02-10T05:20:49.142Z,85.80
2018-02-10T05:23:16.290Z,85.80
2018-02-10T05:25:43.453Z,86.00
2018-02-10T05:28:09.833Z,86.00
2018-02-10T05:30:36.208Z,85.50
2018-02-10T05:33:03.341Z,85.50
2018-02-10T05:35:29.706Z,85.50
2018-02-10T05:37:56.086Z,85.20
2018-02-10T05:40:22.442Z,85.40
2018-02-10T05:42:49.547Z,85.20
2018-02-10T05:45:15.928Z,85.30
2018-02-10T05:47:42.324Z,85.60
2018-02-10T05:50:08.702Z,85.60
2018-02-10T05:52:35.106Z,85.60
2018-02-10T05:55:02.218Z,84.90
2018-02-10T05:57:28.593Z,84.80
2018-02-10T05:59:55.698Z,85.10
2018-02-10T06:02:22.054Z,85.10
2018-02-10T06:04:48.427Z,85.40
2018-02-10T06:07:14.807Z,85.60
2018-02-10T06:09:41.184Z,85.10
2018-02-10T06:12:07.585Z,85.20
2018-02-10T06:14:33.953Z,85.40
2018-02-10T06:17:00.322Z,85.80
2018-02-10T06:19:26.732Z,86.00
2018-02-10T06:21:53.139Z,86.30
2018-02-10T06:24:20.263Z,86.40
2018-02-10T06:26:46.631Z,86.40
2018-02-10T06:29:12.987Z,86.60
2018-02-10T06:31:39.353Z,85.90
2018-02-10T06:34:05.721Z,85.90
2018-02-10T06:36:32.094Z,86.50
2018-02-10T06:38:58.470Z,86.20
2018-02-10T06:41:25.617Z,85.70
2018-02-10T06:43:51.951Z,85.60
2018-02-10T06:46:19.074Z,86.50
2018-02-10T06:48:46.222Z,86.40
2018-02-10T06:51:14.080Z,86.40
2018-02-10T06:53:40.446Z,86.40
2018-02-10T06:56:07.563Z,86.50
2018-02-10T06:58:33.942Z,86.50
2018-02-10T07:01:00.298Z,86.40
2018-02-10T07:03:26.673Z,86.30
2018-02-10T07:05:53.065Z,86.40
2018-02-10T07:08:19.436Z,86.30
2018-02-10T07:10:45.845Z,86.40
2018-02-10T07:13:12.201Z,87.30
2018-02-10T07:15:39.306Z,86.90
2018-02-10T07:18:05.664Z,86.30
2018-02-10T07:20:32.052Z,86.50
2018-02-10T07:22:58.417Z,86.40
2018-02-10T07:25:24.781Z,86.40
2018-02-10T07:27:51.141Z,86.30
2018-02-10T07:30:17.531Z,86.10
2018-02-10T07:32:43.899Z,86.40
2018-02-10T07:35:10.997Z,86.40
2018-02-10T07:37:37.421Z,86.40
2018-02-10T07:40:03.846Z,86.50
2018-02-10T07:42:30.218Z,86.40
2018-02-10T07:44:57.325Z,86.30
2018-02-10T07:47:23.698Z,86.40
2018-02-10T07:49:50.061Z,86.00
2018-02-10T07:52:16.453Z,85.90
2018-02-10T07:54:43.560Z,86.00
2018-02-10T07:57:09.906Z,86.00
2018-02-10T07:59:36.317Z,86.10
2018-02-10T08:02:02.700Z,86.60
2018-02-10T08:04:29.810Z,86.30
2018-02-10T08:06:56.206Z,85.70
2018-02-10T08:09:23.309Z,85.20
2018-02-10T08:11:49.669Z,85.20
2018-02-10T08:14:16.766Z,85.10
2018-02-10T08:16:43.187Z,85.10
2018-02-10T08:19:09.571Z,85.60
2018-02-10T08:21:35.940Z,85.90
2018-02-10T08:24:02.374Z,86.10
2018-02-10T08:26:28.743Z,85.60
2018-02-10T08:28:55.118Z,85.30
2018-02-10T08:31:22.355Z,85.30
2018-02-10T08:33:49.478Z,85.80
2018-02-10T08:36:15.826Z,85.70
2018-02-10T08:38:42.963Z,85.00
2018-02-10T08:41:09.335Z,85.00
2018-02-10T08:43:36.454Z,84.80
2018-02-10T08:46:03.094Z,84.80
2018-02-10T08:48:29.457Z,84.30
2018-02-10T08:50:56.554Z,84.60
2018-02-10T08:53:22.941Z,84.50
2018-02-10T08:55:49.338Z,84.10
2018-02-10T08:58:15.696Z,84.10
2018-02-10T09:00:42.797Z,85.40
2018-02-10T09:03:09.187Z,85.40
2018-02-10T09:05:36.582Z,85.50
2018-02-10T09:08:02.934Z,84.60
2018-02-10T09:10:29.298Z,84.60
2018-02-10T09:12:56.396Z,83.80
2018-02-10T09:15:22.783Z,83.80
2018-02-10T09:17:49.154Z,83.80
2018-02-10T09:20:15.486Z,83.40
2018-02-10T09:22:41.844Z,83.40
2018-02-10T09:25:08.206Z,83.20
2018-02-10T09:27:34.586Z,83.00
2018-02-10T09:30:00.941Z,82.90
2018-02-10T09:32:27.304Z,83.40
2018-02-10T09:34:54.511Z,82.60
2018-02-10T09:37:20.890Z,82.90
2018-02-10T09:39:47.281Z,83.50
2018-02-10T09:42:13.626Z,83.80
2018-02-10T09:44:40.722Z,83.80
2018-02-10T09:47:07.103Z,83.60
2018-02-10T09:49:34.394Z,83.30
2018-02-10T09:52:00.759Z,83.30
2018-02-10T09:54:27.145Z,84.10
2018-02-10T09:56:53.555Z,83.80
2018-02-10T09:59:20.662Z,84.70
2018-02-10T10:01:47.062Z,84.70
2018-02-10T10:04:14.141Z,84.90
2018-02-10T10:06:40.523Z,84.90
2018-02-10T10:09:06.901Z,85.20
2018-02-10T10:11:33.272Z,84.80
2018-02-10T10:14:00.370Z,85.30
2018-02-10T10:16:26.725Z,84.60
2018-02-10T10:18:53.087Z,83.30
2018-02-10T10:21:20.178Z,84.00
2018-02-10T10:23:46.558Z,83.90
2018-02-10T10:26:12.919Z,83.20
2018-02-10T10:28:39.351Z,83.10
2018-02-10T10:31:05.714Z,83.50
2018-02-10T10:33:32.071Z,83.30
2018-02-10T10:35:58.442Z,83.40
2018-02-10T10:38:24.828Z,83.00
2018-02-10T10:40:51.194Z,83.10
2018-02-10T10:43:18.292Z,83.40
2018-02-10T10:45:44.650Z,83.40
2018-02-10T10:48:11.015Z,83.40
2018-02-10T10:50:37.433Z,83.10
2018-02-10T10:53:04.561Z,83.50
2018-02-10T10:55:30.910Z,83.50
2018-02-10T10:57:58.138Z,83.50
2018-02-10T11:00:24.535Z,83.50
2018-02-10T11:02:50.910Z,82.80
2018-02-10T11:05:17.331Z,83.40
2018-02-10T11:07:43.706Z,82.90
2018-02-10T11:10:10.798Z,82.50
2018-02-10T11:12:37.158Z,82.50
2018-02-10T11:15:03.518Z,82.00
2018-02-10T11:17:29.880Z,81.70
2018-02-10T11:19:56.219Z,82.00
2018-02-10T11:22:23.331Z,82.80
2018-02-10T11:24:49.698Z,82.90
2018-02-10T11:27:16.079Z,83.20
2018-02-10T11:29:43.165Z,82.40
2018-02-10T11:32:09.552Z,82.30
2018-02-10T11:34:35.908Z,82.00
2018-02-10T11:37:02.274Z,82.20
2018-02-10T11:39:28.639Z,82.90
2018-02-10T11:41:55.795Z,84.10
2018-02-10T11:44:22.161Z,83.80
2018-02-10T11:46:48.579Z,83.10
2018-02-10T11:49:14.934Z,84.10
2018-02-10T11:51:41.287Z,83.50
2018-02-10T11:54:07.638Z,83.30
2018-02-10T11:56:34.036Z,82.70
2018-02-10T11:59:00.382Z,82.10
2018-02-10T12:01:26.772Z,82.30
2018-02-10T12:03:53.167Z,81.60
2018-02-10T12:06:19.609Z,80.50
2018-02-10T12:08:45.957Z,80.70
2018-02-10T12:11:13.133Z,80.00
2018-02-10T12:13:39.512Z,80.00
2018-02-10T12:16:05.881Z,80.00
2018-02-10T12:18:32.229Z,80.10
2018-02-10T12:20:58.591Z,80.00
2018-02-10T12:23:24.957Z,79.80
2018-02-10T12:25:52.068Z,80.40
2018-02-10T12:28:18.438Z,80.40
2018-02-10T12:30:45.542Z,80.60
2018-02-10T12:33:11.904Z,80.60
2018-02-10T12:35:38.323Z,80.90
2018-02-10T12:38:06.178Z,80.30
2018-02-10T12:40:32.532Z,80.30
2018-02-10T12:43:00.377Z,80.20
2018-02-10T12:45:26.756Z,80.20
2018-02-10T12:48:14.049Z,80.30
2018-02-10T12:50:40.451Z,80.00
2018-02-10T12:53:06.806Z,80.60
2018-02-10T12:55:33.915Z,80.20
2018-02-10T12:58:01.028Z,80.80
2018-02-10T13:00:28.143Z,80.80
2018-02-10T13:02:54.518Z,80.80
2018-02-10T13:05:20.905Z,81.20
2018-02-10T13:07:47.282Z,80.60
2018-02-10T13:10:13.682Z,80.90
2018-02-10T13:12:40.044Z,81.20
2018-02-10T13:15:07.227Z,81.20
2018-02-10T13:17:33.594Z,81.20
2018-02-10T13:20:00.824Z,79.60
2018-02-10T13:22:27.192Z,80.60
2018-02-10T13:24:54.286Z,78.90
2018-02-10T13:27:20.649Z,78.90
2018-02-10T13:29:47.047Z,78.90
2018-02-10T13:32:13.422Z,79.20
2018-02-10T13:34:39.818Z,78.80
2018-02-10T13:37:06.182Z,78.30
2018-02-10T13:39:32.548Z,78.80
2018-02-10T13:41:59.654Z,78.20
2018-02-10T13:44:26.039Z,78.20
2018-02-10T13:46:52.382Z,78.10
2018-02-10T13:49:18.765Z,77.60
2018-02-10T13:51:45.876Z,78.20
2018-02-10T13:54:12.238Z,78.20
2018-02-10T13:56:38.672Z,78.90
2018-02-10T13:59:05.039Z,78.10
2018-02-10T14:01:31.395Z,77.80
2018-02-10T14:03:57.768Z,77.60
2018-02-10T14:06:24.127Z,77.80
2018-02-10T14:08:50.494Z,77.70
2018-02-10T14:11:16.881Z,78.00
2018-02-10T14:13:43.973Z,78.20
2018-02-10T14:16:10.459Z,78.20
2018-02-10T14:18:37.590Z,77.70
2018-02-10T14:21:04.706Z,77.70
2018-02-10T14:23:31.110Z,77.70
2018-02-10T14:25:57.503Z,77.10
2018-02-10T14:28:23.875Z,77.50
2018-02-10T14:30:50.238Z,77.80
2018-02-10T14:33:16.687Z,77.80
2018-02-10T14:35:43.097Z,78.40
2018-02-10T14:38:09.486Z,78.70
2018-02-10T14:40:36.591Z,78.90
2018-02-10T14:43:03.040Z,78.90
2018-02-10T14:45:29.439Z,78.90
2018-02-10T14:47:55.835Z,78.40
2018-02-10T14:50:22.198Z,79.00
2018-02-10T14:52:48.599Z,79.60
2018-02-10T14:55:15.703Z,79.20
2018-02-10T14:57:42.090Z,79.20
2018-02-10T15:00:08.464Z,79.70
2018-02-10T15:02:34.857Z,80.20
2018-02-10T15:05:01.227Z,80.40
2018-02-10T15:07:27.573Z,80.30
2018-02-10T15:09:53.917Z,80.60
2018-02-10T15:12:21.020Z,79.70
2018-02-10T15:14:47.397Z,79.70
2018-02-10T15:17:14.505Z,79.80
2018-02-10T15:19:40.876Z,79.80
2018-02-10T15:22:07.973Z,79.80
2018-02-10T15:24:34.400Z,79.80
2018-02-10T15:27:01.634Z,79.90
2018-02-10T15:29:40.211Z,79.90
2018-02-10T15:32:18.878Z,80.10
2018-02-10T15:34:52.295Z,80.50
2018-02-10T15:37:18.704Z,81.10
2018-02-10T15:39:45.068Z,81.40
2018-02-10T15:42:11.422Z,81.30
2018-02-10T15:44:39.329Z,81.20
2018-02-10T15:47:05.699Z,81.90
2018-02-10T15:49:32.062Z,81.30
2018-02-10T15:51:58.453Z,81.30
2018-02-10T15:54:24.898Z,81.10
2018-02-10T15:56:52.764Z,80.80
2018-02-10T15:59:19.185Z,81.40
2018-02-10T16:01:45.528Z,80.90
2018-02-10T16:04:11.894Z,81.00
2018-02-10T16:06:39.074Z,80.60
2018-02-10T16:09:05.880Z,80.50
2018-02-10T16:11:33.009Z,81.20
2018-02-10T16:13:59.468Z,81.00
2018-02-10T16:16:26.579Z,81.00
2018-02-10T16:18:52.955Z,80.70
2018-02-10T16:21:20.128Z,80.90
2018-02-10T16:23:46.486Z,80.90
2018-02-10T16:26:12.847Z,80.80
2018-02-10T16:28:40.279Z,81.10
2018-02-10T16:31:06.675Z,81.70
2018-02-10T16:33:33.035Z,81.70
2018-02-10T16:35:59.402Z,82.00
2018-02-10T16:38:25.772Z,81.50
2018-02-10T16:40:52.162Z,81.70
2018-02-10T16:43:18.528Z,81.60
2018-02-10T16:45:45.638Z,81.90
2018-02-10T16:48:12.005Z,81.90
2018-02-10T16:50:38.499Z,81.90
2018-02-10T16:53:04.892Z,82.20
2018-02-10T16:55:31.272Z,82.40
2018-02-10T16:57:58.383Z,82.50
2018-02-10T17:21:20.526Z,91.90
2018-02-10T17:23:47.159Z,92.70
2018-02-10T17:26:14.288Z,91.00
2018-02-10T17:28:42.136Z,90.00
2018-02-10T17:31:08.520Z,90.00
2018-02-10T17:33:34.887Z,88.10
2018-02-10T17:36:01.253Z,87.00
2018-02-10T17:38:28.381Z,85.50
2018-02-10T17:40:56.228Z,84.80
2018-02-10T17:43:22.592Z,84.80
2018-02-10T17:45:48.943Z,84.70
2018-02-10T17:48:15.314Z,84.70
2018-02-10T17:50:41.695Z,84.70
2018-02-10T17:53:09.854Z,84.80
2018-02-10T17:55:37.695Z,84.80
2018-02-10T17:58:04.064Z,84.80
2018-02-10T18:00:30.460Z,84.30
2018-02-10T18:02:56.821Z,84.60
2018-02-10T18:05:24.683Z,84.00
2018-02-10T18:07:51.843Z,84.30
2018-02-10T18:10:18.965Z,84.00
2018-02-10T18:12:45.363Z,84.00
2018-02-10T18:15:11.722Z,83.80
2018-02-10T18:17:38.095Z,83.70
2018-02-10T18:20:05.212Z,83.80
2018-02-10T18:22:31.638Z,83.70
2018-02-10T18:24:58.031Z,83.50
2018-02-10T18:27:24.555Z,83.60
2018-02-10T18:29:50.955Z,83.60
2018-02-10T18:32:17.322Z,83.60
2018-02-10T18:34:43.687Z,83.90
2018-02-10T18:37:10.055Z,84.20
2018-02-10T18:39:36.430Z,84.40
2018-02-10T18:42:02.846Z,84.80
2018-02-10T18:44:29.201Z,84.20
2018-02-10T18:46:55.566Z,84.10
2018-02-10T18:49:21.915Z,83.70
2018-02-10T18:51:49.023Z,83.80
2018-02-10T18:54:15.395Z,83.70
2018-02-10T18:56:42.502Z,84.10
2018-02-10T18:59:08.882Z,84.10
2018-02-10T19:01:36.729Z,83.90
2018-02-10T19:04:03.834Z,84.00
2018-02-10T19:06:30.968Z,84.10
2018-02-10T19:08:57.322Z,84.10
2018-02-10T19:11:23.693Z,83.80
2018-02-10T19:13:50.033Z,84.00
2018-02-10T19:16:17.870Z,83.80
2018-02-10T19:18:44.241Z,83.70
2018-02-10T19:21:11.363Z,84.20
2018-02-10T19:23:37.728Z,84.20
2018-02-10T19:26:04.830Z,84.40
2018-02-10T19:28:31.273Z,84.40
2018-02-10T19:30:57.642Z,84.10
2018-02-10T19:33:24.015Z,84.10
2018-02-10T19:35:50.408Z,84.70
2018-02-10T19:38:17.829Z,84.00
2018-02-10T19:40:44.281Z,84.00
2018-02-10T19:43:11.390Z,84.30
2018-02-10T19:45:37.780Z,84.30
2018-02-10T19:48:04.229Z,84.10
2018-02-10T19:50:30.627Z,84.10
2018-02-10T19:52:57.730Z,84.40
2018-02-10T19:55:24.090Z,84.40
2018-02-10T19:57:50.456Z,84.30
2018-02-10T20:00:17.708Z,84.60
2018-02-10T20:02:44.099Z,84.80
2018-02-10T20:05:10.470Z,84.90
2018-02-10T20:07:37.563Z,84.30
2018-02-10T20:10:03.951Z,84.30
2018-02-10T20:12:30.367Z,84.10
2018-02-10T20:14:57.488Z,84.70
2018-02-10T20:17:23.863Z,84.70
2018-02-10T20:19:50.224Z,84.90
2018-02-10T20:22:16.596Z,84.90
2018-02-10T20:24:42.957Z,84.90
2018-02-10T20:27:09.336Z,85.30
2018-02-10T20:29:35.701Z,85.10
2018-02-10T20:32:15.997Z,85.10
2018-02-10T20:34:42.406Z,85.00
2018-02-10T20:37:22.769Z,85.10
2018-02-10T20:39:49.867Z,85.20
2018-02-10T20:42:17.406Z,85.20
2018-02-10T20:44:43.776Z,84.70
2018-02-10T20:47:10.156Z,84.70
2018-02-10T20:49:36.544Z,84.30
2018-02-10T20:52:03.765Z,84.30
2018-02-10T20:54:30.155Z,84.30
2018-02-10T20:56:57.267Z,84.30
2018-02-10T20:59:23.698Z,84.30
2018-02-10T21:01:50.725Z,84.10
2018-02-10T21:04:17.113Z,84.20
2018-02-10T21:06:44.258Z,84.30
2018-02-10T21:09:10.630Z,84.40
2018-02-10T21:11:37.006Z,84.40
2018-02-10T21:14:03.389Z,84.60
2018-02-10T21:16:29.741Z,84.60
2018-02-10T21:18:56.127Z,85.00
2018-02-10T21:21:22.498Z,84.90
2018-02-10T21:23:48.863Z,84.90
2018-02-10T21:26:15.969Z,84.90
2018-02-10T21:28:42.338Z,84.80
2018-02-10T21:31:09.447Z,84.30
2018-02-10T21:33:35.802Z,84.30
2018-02-10T21:36:02.184Z,84.50
2018-02-10T21:38:28.548Z,84.50
2018-02-10T21:40:54.926Z,84.40
2018-02-10T21:43:22.028Z,84.70
2018-02-10T21:45:48.382Z,84.70
2018-02-10T21:48:14.747Z,84.80
2018-02-10T21:50:41.935Z,84.80
2018-02-10T21:53:08.381Z,84.80
2018-02-10T21:55:34.759Z,84.80
2018-02-10T21:58:01.145Z,84.70
2018-02-10T22:00:27.524Z,84.50
2018-02-10T22:02:54.629Z,84.60
2018-02-10T22:05:21.005Z,84.60
2018-02-10T22:07:48.090Z,84.10
2018-02-10T22:10:14.465Z,84.10
2018-02-10T22:12:41.574Z,85.30
2018-02-10T22:15:07.943Z,84.80
2018-02-10T22:17:34.306Z,84.50
2018-02-10T22:20:00.659Z,83.90
2018-02-10T22:22:27.061Z,84.00
2018-02-10T22:24:53.433Z,83.80
2018-02-10T22:27:19.798Z,84.20
2018-02-10T22:29:46.153Z,84.10
2018-02-10T22:32:13.258Z,84.20
2018-02-10T22:34:39.625Z,84.20
2018-02-10T22:37:06.744Z,83.40
2018-02-10T22:39:33.108Z,83.40
2018-02-10T22:42:00.207Z,84.10
2018-02-10T22:44:26.563Z,84.10
2018-02-10T22:46:52.925Z,83.90
2018-02-10T22:49:19.289Z,84.20
2018-02-10T22:51:45.660Z,84.10
2018-02-10T22:54:12.022Z,83.90
2018-02-10T22:56:38.411Z,83.90
2018-02-10T22:59:04.828Z,83.50
2018-02-10T23:01:31.186Z,84.40
2018-02-10T23:03:57.544Z,84.20
2018-02-10T23:06:24.663Z,84.40
2018-02-10T23:08:51.019Z,84.40
2018-02-10T23:11:18.116Z,83.90
2018-02-10T23:13:44.840Z,83.90
2018-02-10T23:16:11.245Z,83.60
2018-02-10T23:18:37.593Z,84.00
2018-02-10T23:21:03.992Z,83.90
2018-02-10T23:23:31.083Z,83.60
2018-02-10T23:25:57.466Z,83.60
2018-02-10T23:28:23.817Z,83.70
2018-02-10T23:30:50.911Z,84.00
2018-02-10T23:33:17.273Z,84.00
2018-02-10T23:35:43.674Z,84.10
2018-02-10T23:38:10.039Z,83.80
2018-02-10T23:40:36.422Z,83.50
2018-02-10T23:43:02.827Z,83.30
2018-02-10T23:45:29.190Z,83.70
2018-02-10T23:47:55.603Z,84.10
2018-02-10T23:50:22.019Z,84.10
2018-02-10T23:52:49.116Z,83.50
2018-02-10T23:55:15.481Z,83.50
2018-02-10T23:57:42.599Z,83.50
